createdAt,value
2022-08-16T00:00:40.813Z,65387.91
2022-08-16T00:03:13.643Z,65387.91
2022-08-16T00:05:48.358Z,65387.91
2022-08-16T00:08:36.018Z,65387.91
2022-08-16T00:11:04.773Z,65387.91
2022-08-16T00:13:33.702Z,65387.91
2022-08-16T00:17:05.780Z,65387.91
2022-08-16T00:21:25.884Z,65387.91
2022-08-16T00:23:56.879Z,65387.91
2022-08-16T00:26:36.036Z,65387.91
2022-08-16T00:29:06.276Z,65387.91
2022-08-16T00:31:58.843Z,65387.91
2022-08-16T00:34:44.921Z,65387.91
2022-08-16T00:38:40.205Z,65387.91
2022-08-16T00:41:53.233Z,65387.91
2022-08-16T00:45:25.925Z,65387.91
2022-08-16T00:48:52.844Z,65387.91
2022-08-16T00:51:55.139Z,65387.91
2022-08-16T00:55:25.255Z,65387.91
2022-08-16T00:59:05.995Z,65387.91
2022-08-16T01:02:33.263Z,65387.91
2022-08-16T01:05:59.955Z,65387.91
2022-08-16T01:09:49.015Z,65387.91
2022-08-16T01:13:18.348Z,65387.91
2022-08-16T01:16:47.429Z,65387.91
2022-08-16T01:20:24.645Z,65387.91
2022-08-16T01:24:53.242Z,65387.91
2022-08-16T01:27:57.890Z,65387.91
2022-08-16T01:31:31.072Z,65387.91
2022-08-16T01:34:57.269Z,65387.91
2022-08-16T01:38:25.694Z,65387.91
2022-08-16T01:41:57.161Z,65387.91
2022-08-16T01:45:24.007Z,65387.91
2022-08-16T01:49:07.631Z,65387.91
2022-08-16T01:52:34.104Z,65387.91
2022-08-16T01:56:03.181Z,65387.91
2022-08-16T01:59:29.415Z,65387.91
2022-08-16T02:02:56.817Z,65387.91
2022-08-16T02:06:33.905Z,65387.91
2022-08-16T02:10:02.232Z,65387.91
2022-08-16T02:13:32.788Z,65387.91
2022-08-16T02:16:59.740Z,65387.91
2022-08-16T02:20:27.859Z,65387.91
2022-08-16T02:23:55.738Z,65387.91
2022-08-16T02:27:22.176Z,65387.91
2022-08-16T02:30:51.703Z,65387.91
2022-08-16T02:34:19.625Z,65387.91
2022-08-16T02:38:01.724Z,65387.91
2022-08-16T02:41:37.331Z,65387.91
2022-08-16T02:45:07.552Z,65387.91
2022-08-16T02:48:38.494Z,65387.91
2022-08-16T02:52:09.136Z,65387.91
2022-08-16T02:55:40.798Z,65387.91
2022-08-16T02:59:11.658Z,65387.91
2022-08-16T03:02:42.883Z,65387.91
2022-08-16T03:06:36.484Z,65387.91
2022-08-16T03:09:55.270Z,65387.91
2022-08-16T03:13:26.630Z,65387.91
2022-08-16T03:16:59.806Z,65387.91
2022-08-16T03:20:32.327Z,65387.91
2022-08-16T03:24:00.158Z,65387.91
2022-08-16T03:27:31.371Z,65387.91
2022-08-16T03:30:59.360Z,65387.91
2022-08-16T03:34:28.623Z,65387.91
2022-08-16T03:38:03.131Z,65387.91
2022-08-16T03:41:50.109Z,65387.91
2022-08-16T03:45:16.447Z,65387.91
2022-08-16T03:48:43.715Z,65387.91
2022-08-16T03:52:13.369Z,65387.91
2022-08-16T03:55:45.403Z,65387.91
2022-08-16T03:59:13.213Z,65387.91
2022-08-16T04:02:40.264Z,65387.91
2022-08-16T04:06:09.135Z,65387.91
2022-08-16T04:09:38.179Z,65387.91
2022-08-16T04:13:04.943Z,65387.91
2022-08-16T04:16:46.454Z,65387.91
2022-08-16T04:20:31.401Z,65387.91
2022-08-16T04:24:00.425Z,65387.91
2022-08-16T04:27:28.835Z,65387.91
2022-08-16T04:30:57.628Z,65387.91
2022-08-16T04:34:24.773Z,65387.91
2022-08-16T04:37:54.024Z,65387.91
2022-08-16T04:41:32.335Z,65387.91
2022-08-16T04:45:01.857Z,65387.91
2022-08-16T04:48:33.901Z,65387.91
2022-08-16T04:52:01.852Z,65387.91
2022-08-16T04:55:37.845Z,65387.91
2022-08-16T04:59:05.930Z,65387.91
2022-08-16T05:02:41.686Z,65387.91
2022-08-16T05:06:09.957Z,65387.91
2022-08-16T05:09:38.285Z,65387.91
2022-08-16T05:13:05.813Z,65387.91
2022-08-16T05:16:33.181Z,65387.91
2022-08-16T05:20:00.532Z,65387.91
2022-08-16T05:23:26.788Z,65387.91
2022-08-16T05:26:59.100Z,65387.91
2022-08-16T05:30:38.372Z,65387.91
2022-08-16T05:34:04.984Z,65387.91
2022-08-16T05:37:46.018Z,65387.91
2022-08-16T05:41:14.224Z,65387.91
2022-08-16T05:44:40.447Z,65387.91
2022-08-16T05:48:08.117Z,65387.91
2022-08-16T05:51:38.690Z,65387.91
2022-08-16T05:55:07.461Z,65387.91
2022-08-16T05:58:36.497Z,65387.91
2022-08-16T06:02:03.400Z,65387.91
2022-08-16T06:05:36.213Z,65387.91
2022-08-16T06:09:07.435Z,65387.91
2022-08-16T06:12:35.149Z,65387.91
2022-08-16T06:16:05.823Z,65387.91
2022-08-16T06:19:33.662Z,65387.91
2022-08-16T06:23:04.123Z,65387.91
2022-08-16T06:26:39.253Z,65387.91
2022-08-16T06:30:28.885Z,65387.91
2022-08-16T06:33:55.124Z,65387.91
2022-08-16T06:37:21.533Z,65387.91
2022-08-16T06:40:48.193Z,65387.91
2022-08-16T06:44:20.740Z,65387.91
2022-08-16T06:47:53.491Z,65387.91
2022-08-16T06:51:22.935Z,65387.91
2022-08-16T06:55:12.894Z,65387.91
2022-08-16T06:58:40.015Z,65387.91
2022-08-16T07:02:32.785Z,65387.91
2022-08-16T07:05:56.789Z,65387.91
2022-08-16T07:09:22.713Z,65387.91
2022-08-16T07:13:03.203Z,65387.91
2022-08-16T07:16:30.543Z,65387.91
2022-08-16T07:20:02.940Z,65387.91
2022-08-16T07:23:46.863Z,65387.91
2022-08-16T07:27:15.609Z,65387.91
2022-08-16T07:30:46.101Z,65387.91
2022-08-16T07:34:14.342Z,65387.91
2022-08-16T07:37:40.265Z,65387.91
2022-08-16T07:41:09.611Z,65387.91
2022-08-16T07:44:49.031Z,65387.91
2022-08-16T07:48:16.617Z,65387.91
2022-08-16T07:51:47.017Z,65387.91
2022-08-16T07:55:14.799Z,65387.91
2022-08-16T07:58:42.231Z,65387.91
2022-08-16T08:02:11.974Z,65387.91
2022-08-16T08:05:38.167Z,65387.91
2022-08-16T08:09:05.874Z,65387.91
2022-08-16T08:12:36.064Z,65387.91
2022-08-16T08:16:02.610Z,65387.91
2022-08-16T08:19:29.144Z,65387.91
2022-08-16T08:23:01.025Z,65387.91
2022-08-16T08:26:28.833Z,65387.91
2022-08-16T08:30:50.356Z,65387.91
2022-08-16T08:33:46.718Z,65387.91
2022-08-16T08:37:16.360Z,65387.91
2022-08-16T08:40:44.800Z,65387.91
2022-08-16T08:44:28.663Z,65387.91
2022-08-16T08:47:58.662Z,65387.91
2022-08-16T08:51:25.436Z,65387.91
2022-08-16T08:54:53.752Z,65387.91
2022-08-16T08:58:21.859Z,65387.91
2022-08-16T09:01:56.509Z,65387.91
2022-08-16T09:05:26.158Z,65387.91
2022-08-16T09:09:03.265Z,65387.91
2022-08-16T09:12:36.146Z,65387.91
2022-08-16T09:16:03.019Z,65387.91
2022-08-16T09:19:32.922Z,65387.91
2022-08-16T09:23:03.247Z,65387.91
2022-08-16T09:26:44.541Z,65387.91
2022-08-16T09:30:33.518Z,65387.91
2022-08-16T09:34:01.766Z,65387.91
2022-08-16T09:37:30.552Z,65387.91
2022-08-16T09:41:05.961Z,65387.91
2022-08-16T09:45:12.620Z,65387.91
2022-08-16T09:48:44.392Z,65387.91
2022-08-16T09:52:12.074Z,65387.91
2022-08-16T09:55:44.499Z,65387.91
2022-08-16T09:59:11.252Z,65387.91
2022-08-16T10:02:44.177Z,65387.91
2022-08-16T10:06:11.281Z,65387.91
2022-08-16T10:09:54.376Z,65387.91
2022-08-16T10:13:21.925Z,65387.91
2022-08-16T10:16:49.349Z,65387.91
2022-08-16T10:20:18.663Z,65387.91
2022-08-16T10:23:45.176Z,65387.91
2022-08-16T10:27:25.420Z,65387.91
2022-08-16T10:30:56.284Z,65387.91
2022-08-16T10:34:31.637Z,65387.91
2022-08-16T10:37:58.716Z,65387.91
2022-08-16T10:41:25.280Z,65387.91
2022-08-16T10:44:54.691Z,65387.91
2022-08-16T10:48:24.022Z,65387.91
2022-08-16T10:52:02.754Z,65387.91
2022-08-16T10:55:45.127Z,65387.91
2022-08-16T10:59:39.252Z,65387.91
2022-08-16T11:03:01.303Z,65387.91
2022-08-16T11:06:07.450Z,65387.91
2022-08-16T11:09:28.918Z,65387.91
2022-08-16T11:12:13.636Z,65387.91
2022-08-16T11:15:37.412Z,65387.91
2022-08-16T11:19:04.618Z,65387.91
2022-08-16T11:22:38.686Z,65387.91
2022-08-16T11:27:41.202Z,65387.91
2022-08-16T11:30:20.079Z,65387.91
2022-08-16T11:32:51.735Z,65387.91
2022-08-16T11:35:43.328Z,65387.91
2022-08-16T11:38:46.540Z,65387.91
2022-08-16T11:41:04.544Z,65387.91
2022-08-16T11:43:36.152Z,65387.91
2022-08-16T11:46:44.162Z,65387.91
2022-08-16T11:48:55.552Z,65387.91
2022-08-16T11:51:22.981Z,65387.91
2022-08-16T11:53:52.600Z,65387.91
2022-08-16T11:56:39.811Z,65387.91
2022-08-16T11:59:09.860Z,65387.91
2022-08-16T12:01:55.235Z,65387.91
2022-08-16T12:04:27.290Z,65387.91
2022-08-16T12:06:54.900Z,65387.91
2022-08-16T12:09:23.943Z,65387.91
2022-08-16T12:11:54.358Z,65387.91
2022-08-16T12:14:22.856Z,65387.91
2022-08-16T12:16:55.044Z,65387.91
2022-08-16T12:19:33.666Z,65387.91
2022-08-16T12:22:05.776Z,65387.91
2022-08-16T12:24:47.879Z,65387.91
2022-08-16T12:27:23.258Z,65387.91
2022-08-16T12:29:51.643Z,65387.91
2022-08-16T12:32:37.937Z,65387.91
2022-08-16T12:35:10.545Z,65387.91
2022-08-16T12:37:38.792Z,65387.91
2022-08-16T12:40:25.050Z,65387.91
2022-08-16T12:43:00.889Z,65387.91
2022-08-16T12:45:31.078Z,65387.91
2022-08-16T12:48:33.585Z,65387.91
2022-08-16T12:51:03.366Z,65387.91
2022-08-16T12:53:31.706Z,65387.91
2022-08-16T12:56:00.355Z,65387.91
2022-08-16T12:58:47.393Z,65387.91
2022-08-16T13:01:17.663Z,65387.91
2022-08-16T13:03:45.193Z,65387.91
2022-08-16T13:06:13.435Z,65387.91
2022-08-16T13:08:47.395Z,65387.91
2022-08-16T13:11:17.711Z,65387.91
2022-08-16T13:13:46.985Z,65387.91
2022-08-16T13:16:24.775Z,65387.91
2022-08-16T13:18:54.615Z,65387.91
2022-08-16T13:21:23.588Z,65387.91
2022-08-16T13:23:55.291Z,65387.91
2022-08-16T13:26:23.525Z,65387.91
2022-08-16T13:28:53.204Z,65387.91
2022-08-16T13:31:20.633Z,65387.91
2022-08-16T13:33:48.113Z,65387.91
2022-08-16T13:39:03.635Z,65387.91
2022-08-16T13:41:32.087Z,65387.91
2022-08-16T13:44:04.273Z,65387.91
2022-08-16T13:46:37.741Z,65387.91
2022-08-16T13:49:06.784Z,65387.91
2022-08-16T13:51:34.233Z,120182.44
2022-08-16T13:54:04.321Z,65387.91
2022-08-16T13:56:37.494Z,65387.91
2022-08-16T13:59:19.264Z,65387.91
2022-08-16T14:01:54.689Z,65387.91
2022-08-16T14:04:26.714Z,65387.91
2022-08-16T14:06:54.645Z,65387.91
2022-08-16T14:09:22.295Z,65387.91
2022-08-16T14:11:53.701Z,119917.84
2022-08-16T14:14:29.293Z,65387.91
2022-08-16T14:16:58.431Z,65387.91
2022-08-16T14:19:27.756Z,65387.91
2022-08-16T14:22:15.393Z,65387.91
2022-08-16T14:24:46.984Z,99234.59
2022-08-16T14:27:15.402Z,65387.91
2022-08-16T14:29:44.311Z,65387.91
2022-08-16T14:32:13.256Z,65387.91
2022-08-16T14:35:00.973Z,65387.91
2022-08-16T14:37:28.385Z,65387.91
2022-08-16T14:39:58.593Z,65387.91
2022-08-16T14:42:26.598Z,65387.91
2022-08-16T14:44:55.579Z,65387.91
2022-08-16T14:47:23.900Z,65387.91
2022-08-16T14:49:52.358Z,65387.91
2022-08-16T14:52:44.562Z,65387.91
2022-08-16T14:55:11.712Z,65387.91
2022-08-16T14:57:39.995Z,65387.91
2022-08-16T15:00:12.338Z,65387.91
2022-08-16T15:02:40.566Z,65387.91
2022-08-16T15:05:11.053Z,65387.91
2022-08-16T15:07:40.323Z,65387.91
2022-08-16T15:10:21.516Z,65387.91
2022-08-16T15:12:54.109Z,65387.91
2022-08-16T15:15:26.540Z,65387.91
2022-08-16T15:17:57.104Z,65387.91
2022-08-16T15:20:29.416Z,65387.91
2022-08-16T15:22:57.859Z,65387.91
2022-08-16T15:25:29.477Z,65387.91
2022-08-16T15:27:57.748Z,65387.91
2022-08-16T15:30:47.790Z,65387.91
2022-08-16T15:33:19.967Z,99533.91
2022-08-16T15:35:50.096Z,99535.72
2022-08-16T15:38:54.934Z,99529.28
2022-08-16T15:41:06.648Z,99533.25
2022-08-16T15:43:39.894Z,99535.84
2022-08-16T15:46:35.208Z,99542.25
2022-08-16T15:49:12.845Z,99536.59
2022-08-16T15:51:43.590Z,99533.19
2022-08-16T15:54:29.032Z,99534.00
2022-08-16T15:57:01.576Z,99534.03
2022-08-16T15:59:34.803Z,99531.91
2022-08-16T16:02:27.590Z,99530.31
2022-08-16T16:04:57.884Z,99531.97
2022-08-16T16:07:30.053Z,99531.44
2022-08-16T16:09:58.829Z,99522.00
2022-08-16T16:12:53.540Z,99527.84
2022-08-16T16:15:16.057Z,99530.72
2022-08-16T16:17:50.839Z,99526.06
2022-08-16T16:20:19.323Z,99515.66
2022-08-16T16:22:47.625Z,99524.41
2022-08-16T16:25:15.800Z,99528.09
2022-08-16T16:27:43.467Z,99521.19
2022-08-16T16:30:32.556Z,99522.94
2022-08-16T16:33:01.548Z,99521.06
2022-08-16T16:35:32.925Z,99533.78
2022-08-16T16:38:00.877Z,99533.94
2022-08-16T16:40:32.765Z,99541.19
2022-08-16T16:43:00.952Z,99530.63
2022-08-16T16:45:34.854Z,99537.31
2022-08-16T16:48:12.536Z,99526.81
2022-08-16T16:50:44.526Z,99532.75
2022-08-16T16:53:17.474Z,99532.94
2022-08-16T16:55:47.653Z,99526.78
2022-08-16T16:58:38.262Z,99529.88
2022-08-16T17:01:07.173Z,99512.19
2022-08-16T17:03:36.389Z,99516.31
2022-08-16T17:06:09.453Z,99527.47
2022-08-16T17:08:40.858Z,99524.38
2022-08-16T17:11:09.413Z,99525.59
2022-08-16T17:13:38.477Z,99512.59
2022-08-16T17:16:08.545Z,99513.41
2022-08-16T17:19:16.767Z,99506.66
2022-08-16T17:21:36.963Z,99483.88
2022-08-16T17:24:18.388Z,99483.88
2022-08-16T17:26:48.812Z,99463.75
2022-08-16T17:29:16.865Z,99474.94
2022-08-16T17:31:45.474Z,99474.94
2022-08-16T17:34:30.826Z,99355.81
2022-08-16T17:36:59.577Z,99313.44
2022-08-16T17:39:29.707Z,99305.50
2022-08-16T17:41:57.617Z,99280.09
2022-08-16T17:44:25.355Z,99280.09
2022-08-16T17:46:53.277Z,99200.97
2022-08-16T17:49:22.418Z,99160.59
2022-08-16T17:51:49.880Z,99160.59
2022-08-16T17:54:29.751Z,99100.84
2022-08-16T17:56:58.385Z,99100.84
2022-08-16T17:59:28.090Z,99070.03
2022-08-16T18:01:55.633Z,65387.91
2022-08-16T18:04:43.593Z,65387.91
2022-08-16T18:07:11.936Z,65387.91
2022-08-16T18:09:40.968Z,65387.91
2022-08-16T18:12:44.980Z,65387.91
2022-08-16T18:15:03.868Z,65387.91
2022-08-16T18:17:32.917Z,65387.91
2022-08-16T18:20:01.664Z,65387.91
2022-08-16T18:22:30.963Z,65387.91
2022-08-16T18:24:59.135Z,65387.91
2022-08-16T18:27:28.275Z,65387.91
2022-08-16T18:29:55.712Z,65387.91
2022-08-16T18:32:24.749Z,65387.91
2022-08-16T18:34:52.869Z,65387.91
2022-08-16T18:37:23.585Z,65387.91
2022-08-16T18:39:51.092Z,65387.91
2022-08-16T18:42:18.588Z,65387.91
2022-08-16T18:44:46.067Z,65387.91
2022-08-16T18:47:13.463Z,65387.91
2022-08-16T18:49:40.943Z,65387.91
2022-08-16T18:52:08.460Z,65387.91
2022-08-16T18:55:01.913Z,65387.91
2022-08-16T18:57:24.540Z,65387.91
2022-08-16T18:59:51.916Z,65387.91
2022-08-16T19:02:43.064Z,65387.91
2022-08-16T19:05:14.385Z,65387.91
2022-08-16T19:07:42.058Z,65387.91
2022-08-16T19:10:11.327Z,65387.91
2022-08-16T19:12:42.094Z,65387.91
2022-08-16T19:15:14.073Z,65387.91
2022-08-16T19:17:42.291Z,65387.91
2022-08-16T19:20:11.261Z,65387.91
2022-08-16T19:23:02.078Z,65387.91
2022-08-16T19:25:46.712Z,65387.91
2022-08-16T19:28:49.257Z,65387.91
2022-08-16T19:31:09.192Z,65387.91
2022-08-16T19:33:37.100Z,65387.91
2022-08-16T19:36:05.299Z,65387.91
2022-08-16T19:38:32.688Z,65387.91
2022-08-16T19:41:01.403Z,65387.91
2022-08-16T19:43:28.968Z,65387.91
2022-08-16T19:45:56.441Z,65387.91
2022-08-16T19:48:25.092Z,65387.91
2022-08-16T19:50:52.515Z,65387.91
2022-08-16T19:53:20.089Z,65387.91
2022-08-16T19:55:48.448Z,65387.91
2022-08-16T19:58:17.748Z,65387.91
2022-08-16T20:00:47.795Z,65387.91
2022-08-16T20:03:23.188Z,65387.91
2022-08-16T20:05:51.733Z,65387.91
2022-08-16T20:08:19.563Z,65387.91
2022-08-16T20:10:48.044Z,65387.91
2022-08-16T20:13:19.805Z,65387.91
2022-08-16T20:15:49.212Z,65387.91
2022-08-16T20:18:24.663Z,65387.91
2022-08-16T20:20:53.543Z,65387.91
2022-08-16T20:23:24.949Z,65387.91
2022-08-16T20:25:53.715Z,65387.91
2022-08-16T20:28:51.003Z,65387.91
2022-08-16T20:31:11.326Z,65387.91
2022-08-16T20:33:38.856Z,65387.91
2022-08-16T20:36:06.592Z,65387.91
2022-08-16T20:38:35.173Z,65387.91
2022-08-16T20:41:03.086Z,65387.91
2022-08-16T20:43:31.790Z,65387.91
2022-08-16T20:45:59.273Z,65387.91
2022-08-16T20:48:26.669Z,65387.91
2022-08-16T20:50:55.482Z,65387.91
2022-08-16T20:53:23.117Z,65387.91
2022-08-16T20:55:50.591Z,65387.91
2022-08-16T20:58:17.981Z,65387.91
2022-08-16T21:00:47.175Z,65387.91
2022-08-16T21:03:14.907Z,65387.91
2022-08-16T21:05:42.713Z,65387.91
2022-08-16T21:08:50.346Z,65387.91
2022-08-16T21:10:58.501Z,65387.91
2022-08-16T21:13:26.119Z,65387.91
2022-08-16T21:15:55.159Z,65387.91
2022-08-16T21:18:22.540Z,65387.91
2022-08-16T21:20:49.918Z,65387.91
2022-08-16T21:23:17.819Z,65387.91
2022-08-16T21:25:58.370Z,65387.91
2022-08-16T21:28:41.182Z,65387.91
2022-08-16T21:31:12.633Z,65387.91
2022-08-16T21:33:40.733Z,65387.91
2022-08-16T21:36:08.883Z,65387.91
2022-08-16T21:38:36.308Z,65387.91
2022-08-16T21:41:05.602Z,65387.91
2022-08-16T21:43:33.425Z,65387.91
2022-08-16T21:46:02.273Z,65387.91
2022-08-16T21:48:35.030Z,65387.91
2022-08-16T21:51:04.674Z,65387.91
2022-08-16T21:53:32.201Z,65387.91
2022-08-16T21:56:00.521Z,65387.91
2022-08-16T21:58:29.076Z,65387.91
2022-08-16T22:00:56.589Z,65387.91
2022-08-16T22:03:24.592Z,65387.91
2022-08-16T22:06:13.302Z,65387.91
2022-08-16T22:08:49.119Z,65387.91
2022-08-16T22:11:18.440Z,65387.91
2022-08-16T22:13:57.634Z,65387.91
2022-08-16T22:16:27.395Z,65387.91
2022-08-16T22:18:54.813Z,65387.91
2022-08-16T22:21:23.923Z,65387.91
2022-08-16T22:23:56.570Z,65387.91
2022-08-16T22:26:30.373Z,65387.91
2022-08-16T22:28:58.801Z,65387.91
2022-08-16T22:31:26.392Z,65387.91
2022-08-16T22:33:53.784Z,65387.91
2022-08-16T22:36:21.169Z,65387.91
2022-08-16T22:38:54.167Z,65387.91
2022-08-16T22:41:24.833Z,65387.91
2022-08-16T22:43:52.641Z,65387.91
2022-08-16T22:46:21.043Z,65387.91
2022-08-16T22:48:49.890Z,65387.91
2022-08-16T22:51:17.539Z,65387.91
2022-08-16T22:53:44.966Z,65387.91
2022-08-16T22:56:15.356Z,65387.91
2022-08-16T22:58:42.777Z,65387.91
2022-08-16T23:01:12.450Z,65387.91
2022-08-16T23:03:40.490Z,65387.91
2022-08-16T23:06:08.803Z,65387.91
2022-08-16T23:08:40.959Z,65387.91
2022-08-16T23:11:11.036Z,65387.91
2022-08-16T23:13:50.032Z,65387.91
2022-08-16T23:16:25.107Z,65387.91
2022-08-16T23:19:01.919Z,65387.91
2022-08-16T23:21:29.319Z,65387.91
2022-08-16T23:23:56.730Z,65387.91
2022-08-16T23:26:46.134Z,65387.91
2022-08-16T23:29:15.919Z,65387.91
2022-08-16T23:31:53.571Z,65387.91
2022-08-16T23:34:21.365Z,65387.91
2022-08-16T23:36:48.743Z,65387.91
2022-08-16T23:39:16.261Z,65387.91
2022-08-16T23:41:44.432Z,65387.91
2022-08-16T23:44:55.643Z,65387.91
2022-08-16T23:47:00.535Z,65387.91
2022-08-16T23:49:58.303Z,65387.91
2022-08-16T23:52:15.449Z,65387.91
2022-08-16T23:54:42.872Z,65387.91
2022-08-16T23:57:10.769Z,65387.91
2022-08-16T23:59:52.207Z,65387.91
